EST,Max TemperatureF,Mean TemperatureF,Min TemperatureF,Max Dew PointF,MeanDew PointF,Min DewpointF,Max Humidity, Mean Humidity, Min Humidity, Max Sea Level PressureIn, Mean Sea Level PressureIn, Min Sea Level PressureIn, Max VisibilityMiles, Mean VisibilityMiles, Min VisibilityMiles, Max Wind SpeedMPH, Mean Wind SpeedMPH, Max Gust SpeedMPH,PrecipitationIn, CloudCover, Events, WindDirDegrees
2013-1-1,42,38,33,38,32,18,92,64,35,30.08,29.98,29.91,10,5,0,20,8,29,0.15,8,Fog-Rain-Snow,269
2013-1-2,33,30,27,30,26,23,92,82,72,30.18,30.05,29.95,10,7,0,12,5,16,0.02,7,Fog-Snow,290
2013-1-3,34,30,26,24,21,16,92,72,51,30.27,30.20,30.09,10,10,6,13,5,17,0.00,3,,279
2013-1-4,29,26,22,19,18,16,81,72,63,30.35,30.28,30.20,10,10,10,21,12,29,0.00,4,,282
2013-1-5,44,33,22,25,19,17,81,57,33,30.40,30.31,30.21,10,10,9,16,6,22,T,2,Rain,259
2013-1-6,39,36,33,28,27,25,82,73,64,30.22,30.12,30.06,10,10,9,17,9,26,T,8,,267
2013-1-7,46,37,27,23,21,19,75,56,37,30.44,30.34,30.24,10,10,10,15,5,24,0.00,4,,266
2013-1-8,52,41,30,25,22,17,69,49,29,30.38,30.33,30.30,10,10,10,14,4,18,0.00,0,,197
2013-1-9,58,50,42,46,42,25,93,69,45,30.49,30.40,30.30,10,8,1,15,7,22,0.06,6,Rain,275
2013-1-10,60,49,37,41,37,30,93,63,33,30.52,30.45,30.30,10,6,0,21,5,32,0.00,2,Fog,125
2013-1-11,60,52,44,53,44,30,89,68,46,30.31,30.17,30.06,10,10,10,21,9,31,0.03,6,Rain,199
2013-1-12,72,66,60,58,55,51,84,67,49,30.17,30.08,29.99,10,10,6,21,9,28,0.02,4,Rain,248
2013-1-13,69,64,58,53,49,46,69,58,47,30.04,29.97,29.93,10,10,10,21,10,28,0.07,3,Rain,199
2013-1-14,59,48,36,54,42,33,93,85,76,30.28,30.15,30.00,10,8,2,15,5,21,0.65,8,Rain,309
2013-1-15,44,40,36,40,37,33,92,87,82,30.22,30.13,29.97,10,4,0,18,6,28,0.91,8,Fog-Rain,103
2013-1-16,59,48,37,48,42,35,93,73,53,30.04,29.97,29.87,10,6,0,20,6,25,0.57,8,Fog-Rain,264
2013-1-17,40,35,29,37,30,24,92,81,70,30.24,30.05,29.97,10,5,0,14,5,18,1.08,8,Fog-Rain-Snow,342
2013-1-18,34,29,24,23,20,13,85,66,47,30.49,30.38,30.19,10,10,7,21,7,28,0.00,4,,281
2013-1-19,48,40,31,20,17,13,56,41,25,30.38,30.26,30.06,10,10,10,18,8,23,0.00,0,,250
2013-1-20,46,39,32,27,22,15,64,51,37,30.09,30.05,30.01,10,10,10,22,13,31,0.00,0,,273
2013-1-21,40,31,21,16,10,3,53,40,27,30.06,30.00,29.91,10,10,10,29,12,43,0.00,0,,265
2013-1-22,21,16,10,2,-4,-8,63,47,31,30.27,30.17,30.00,10,10,10,21,12,30,0.00,0,,297
2013-1-23,34,23,11,19,5,-4,60,50,39,30.31,30.20,29.99,10,10,9,23,10,31,T,5,Snow,278
2013-1-24,34,23,12,20,6,-1,62,51,39,30.49,30.24,29.93,10,8,0,26,11,39,T,5,Snow,329
2013-1-25,33,23,13,29,16,0,88,68,47,30.42,30.09,29.93,10,4,0,23,10,32,0.21,7,Rain-Snow,194
2013-1-26,32,28,23,28,22,18,88,83,78,30.40,30.17,30.01,10,8,2,22,11,32,T,8,Snow,298
2013-1-27,40,29,18,25,18,14,84,62,40,30.47,30.41,30.30,10,10,8,9,4,13,0.01,3,Rain,110
2013-1-28,59,47,34,46,38,27,86,70,53,30.32,30.24,30.16,10,7,1,29,11,40,0.30,7,Rain,261
2013-1-29,68,59,50,50,46,42,83,64,45,30.19,30.09,29.90,10,10,10,17,10,25,0.08,4,Rain,234
2013-1-30,66,55,44,54,49,37,93,78,63,29.89,29.58,29.37,10,8,2,31,13,44,1.75,7,Rain-Thunderstorm,232
2013-1-31,44,35,26,37,22,14,89,74,58,29.92,29.69,29.42,10,6,1,32,17,48,0.09,8,Rain-Snow,283